createdAt,value
2018-09-04T00:00:26.381Z,38.03
2018-09-04T00:02:55.375Z,38.90
2018-09-04T00:05:24.168Z,39.30
2018-09-04T00:07:53.051Z,45.17
2018-09-04T00:10:21.927Z,36.30
2018-09-04T00:12:50.583Z,46.07
2018-09-04T00:15:19.407Z,38.77
2018-09-04T00:17:48.161Z,41.03
2018-09-04T00:20:16.927Z,36.23
2018-09-04T00:22:45.653Z,37.97
2018-09-04T00:25:14.364Z,35.20
2018-09-04T00:27:43.108Z,40.10
2018-09-04T00:30:11.878Z,36.87
2018-09-04T00:32:40.746Z,40.70
2018-09-04T00:35:09.519Z,38.67
2018-09-04T00:37:38.462Z,37.87
2018-09-04T00:40:07.270Z,37.67
2018-09-04T00:42:36.017Z,34.70
2018-09-04T00:45:04.521Z,36.20
2018-09-04T00:47:32.981Z,37.73
2018-09-04T00:50:01.342Z,37.43
2018-09-04T00:52:29.753Z,39.77
2018-09-04T00:54:58.131Z,38.30
2018-09-04T00:57:26.502Z,42.03
2018-09-04T00:59:54.838Z,36.97
2018-09-04T01:02:23.263Z,35.47
2018-09-04T01:04:51.630Z,33.67
2018-09-04T01:07:19.986Z,38.40
2018-09-04T01:09:48.325Z,34.80
2018-09-04T01:12:16.682Z,32.87
2018-09-04T01:14:45.041Z,34.97
2018-09-04T01:17:13.391Z,29.80
2018-09-04T01:19:41.783Z,35.17
2018-09-04T01:22:10.166Z,33.83
2018-09-04T01:24:38.503Z,34.03
2018-09-04T01:27:06.845Z,32.33
2018-09-04T01:29:35.258Z,30.50
2018-09-04T01:32:03.647Z,32.20
2018-09-04T01:34:32.037Z,33.33
2018-09-04T01:37:00.408Z,34.27
2018-09-04T01:39:28.786Z,34.87
2018-09-04T01:41:57.211Z,30.80
2018-09-04T01:44:25.575Z,35.40
2018-09-04T01:46:53.985Z,34.73
2018-09-04T01:49:22.334Z,35.20
2018-09-04T01:51:50.714Z,37.43
2018-09-04T01:54:19.096Z,39.87
2018-09-04T01:56:47.504Z,36.20
2018-09-04T01:59:15.878Z,40.53
2018-09-04T02:01:44.244Z,43.50
2018-09-04T02:04:12.613Z,42.90
2018-09-04T02:06:40.953Z,44.60
2018-09-04T02:09:09.495Z,43.43
2018-09-04T02:11:37.914Z,44.00
2018-09-04T02:14:06.357Z,43.70
2018-09-04T02:16:34.761Z,48.20
2018-09-04T02:19:03.156Z,45.10
2018-09-04T02:21:31.516Z,53.70
2018-09-04T02:23:59.931Z,59.23
2018-09-04T02:26:28.374Z,52.80
2018-09-04T02:28:56.882Z,50.63
2018-09-04T02:31:25.375Z,58.60
2018-09-04T02:33:53.790Z,51.23
2018-09-04T02:36:22.184Z,54.50
2018-09-04T02:38:50.571Z,50.10
2018-09-04T02:41:18.969Z,53.60
2018-09-04T02:43:47.351Z,55.17
2018-09-04T02:46:15.749Z,54.57
2018-09-04T02:48:44.093Z,51.73
2018-09-04T02:51:12.567Z,51.10
2018-09-04T02:53:40.964Z,70.43
2018-09-04T02:56:09.355Z,56.07
2018-09-04T02:58:37.768Z,58.83
2018-09-04T03:01:06.162Z,58.90
2018-09-04T03:03:34.578Z,58.03
2018-09-04T03:06:02.951Z,69.97
2018-09-04T03:08:31.439Z,63.37
2018-09-04T03:10:59.786Z,56.50
2018-09-04T03:13:28.150Z,56.73
2018-09-04T03:15:56.547Z,49.07
2018-09-04T03:18:24.930Z,69.83
2018-09-04T03:20:53.342Z,51.60
2018-09-04T03:23:21.711Z,58.23
2018-09-04T03:25:50.067Z,55.37
2018-09-04T03:28:18.423Z,61.00
2018-09-04T03:30:46.805Z,57.07
2018-09-04T03:33:15.218Z,59.90
2018-09-04T03:35:43.597Z,57.80
2018-09-04T03:38:11.938Z,53.37
2018-09-04T03:40:40.315Z,52.77
2018-09-04T03:43:08.802Z,69.03
2018-09-04T03:45:37.227Z,56.83
2018-09-04T03:48:05.807Z,49.43
2018-09-04T03:50:34.242Z,50.40
2018-09-04T03:53:02.652Z,47.03
2018-09-04T03:55:31.099Z,48.60
2018-09-04T03:57:59.522Z,47.57
2018-09-04T04:00:27.922Z,45.87
2018-09-04T04:02:56.407Z,47.57
2018-09-04T04:05:24.882Z,48.83
2018-09-04T04:07:53.254Z,51.43
2018-09-04T04:10:21.664Z,45.50
2018-09-04T04:12:50.070Z,45.70
2018-09-04T04:15:18.512Z,44.90
2018-09-04T04:17:46.987Z,45.40
2018-09-04T04:20:15.427Z,51.13
2018-09-04T04:22:44.146Z,48.17
2018-09-04T04:25:12.675Z,46.27
2018-09-04T04:27:41.303Z,43.97
2018-09-04T04:30:09.821Z,48.00
2018-09-04T04:32:38.343Z,66.07
2018-09-04T04:35:06.911Z,43.97
2018-09-04T04:37:35.332Z,46.83
2018-09-04T04:40:03.917Z,49.83
2018-09-04T04:42:32.474Z,49.57
2018-09-04T04:45:00.870Z,46.60
2018-09-04T04:47:34.748Z,51.67
2018-09-04T04:50:03.121Z,50.17
2018-09-04T04:52:31.598Z,52.60
2018-09-04T04:55:00.147Z,53.67
2018-09-04T04:57:28.692Z,56.23
2018-09-04T04:59:57.114Z,52.83
2018-09-04T05:02:25.590Z,55.07
2018-09-04T05:04:54.063Z,49.80
2018-09-04T05:07:22.619Z,50.70
2018-09-04T05:09:51.047Z,55.20
2018-09-04T05:12:19.517Z,50.90
2018-09-04T05:14:47.976Z,54.13
2018-09-04T05:17:16.438Z,56.57
2018-09-04T05:19:44.832Z,59.37
2018-09-04T05:22:13.192Z,53.80
2018-09-04T05:24:41.762Z,52.43
2018-09-04T05:27:10.506Z,54.43
2018-09-04T05:29:38.851Z,63.87
2018-09-04T05:32:26.106Z,58.30
2018-09-04T05:34:54.437Z,86.70
2018-09-04T05:37:22.840Z,53.17
2018-09-04T05:39:51.196Z,55.50
2018-09-04T05:42:29.394Z,55.47
2018-09-04T05:44:57.750Z,57.47
2018-09-04T05:47:28.935Z,54.37
2018-09-04T05:49:57.341Z,56.20
2018-09-04T05:52:25.710Z,54.40
2018-09-04T05:54:54.051Z,58.80
2018-09-04T05:57:22.461Z,59.63
2018-09-04T05:59:50.804Z,58.17
2018-09-04T06:02:19.407Z,60.97
2018-09-04T06:04:47.769Z,57.90
2018-09-04T06:07:16.279Z,58.03
2018-09-04T06:09:44.663Z,61.40
2018-09-04T06:12:13.263Z,54.53
2018-09-04T06:14:41.703Z,52.57
2018-09-04T06:17:10.056Z,52.37
2018-09-04T06:19:38.439Z,48.63
2018-09-04T06:22:06.807Z,52.87
2018-09-04T06:24:35.159Z,49.47
2018-09-04T06:27:03.499Z,49.20
2018-09-04T06:29:31.940Z,49.57
2018-09-04T06:32:00.502Z,48.27
2018-09-04T06:34:28.912Z,47.70
2018-09-04T06:36:57.262Z,44.13
2018-09-04T06:39:25.595Z,41.70
2018-09-04T06:41:54.019Z,46.40
2018-09-04T06:44:22.373Z,46.10
2018-09-04T06:46:50.715Z,44.00
2018-09-04T06:49:19.094Z,42.20
2018-09-04T06:51:47.463Z,36.30
2018-09-04T06:54:15.864Z,31.30
2018-09-04T06:56:44.291Z,31.90
2018-09-04T06:59:12.744Z,32.97
2018-09-04T07:01:41.130Z,32.67
2018-09-04T07:04:09.509Z,30.13
2018-09-04T07:06:37.822Z,29.10
2018-09-04T07:09:08.559Z,32.20
2018-09-04T07:11:36.899Z,26.67
2018-09-04T07:14:05.223Z,29.83
2018-09-04T07:16:33.580Z,28.83
2018-09-04T07:19:01.946Z,30.07
2018-09-04T07:21:30.381Z,29.43
2018-09-04T07:23:58.769Z,27.83
2018-09-04T07:26:27.117Z,27.43
2018-09-04T07:28:55.453Z,27.80
2018-09-04T07:31:23.805Z,26.87
2018-09-04T07:33:52.190Z,27.90
2018-09-04T07:36:20.539Z,27.07
2018-09-04T07:38:48.858Z,30.37
2018-09-04T07:41:17.209Z,27.17
2018-09-04T07:43:45.579Z,30.00
2018-09-04T07:46:13.971Z,31.20
2018-09-04T07:48:42.302Z,32.60
2018-09-04T07:51:10.629Z,32.57
2018-09-04T07:53:39.035Z,30.60
2018-09-04T07:56:07.424Z,29.87
2018-09-04T07:58:35.784Z,29.80
2018-09-04T08:01:04.447Z,29.23
2018-09-04T08:03:32.711Z,29.80
2018-09-04T08:06:01.064Z,28.67
2018-09-04T08:08:29.386Z,27.60
2018-09-04T08:10:57.815Z,28.40
2018-09-04T08:13:26.146Z,28.07
2018-09-04T08:15:54.500Z,28.93
2018-09-04T08:18:22.840Z,27.27
2018-09-04T08:20:51.207Z,26.77
2018-09-04T08:23:19.538Z,27.77
2018-09-04T08:25:47.870Z,24.33
2018-09-04T08:28:16.215Z,25.10
2018-09-04T08:30:44.599Z,22.53
2018-09-04T08:33:13.040Z,24.10
2018-09-04T08:35:41.367Z,23.43
2018-09-04T08:38:09.753Z,22.97
2018-09-04T08:40:38.080Z,23.03
2018-09-04T08:43:06.822Z,22.70
2018-09-04T08:45:35.138Z,20.17
2018-09-04T08:48:07.724Z,20.90
2018-09-04T08:50:36.107Z,19.30
2018-09-04T08:53:04.450Z,19.30
2018-09-04T08:55:32.779Z,18.73
2018-09-04T08:58:01.182Z,17.83
2018-09-04T09:00:29.520Z,17.90
2018-09-04T09:02:57.910Z,19.33
2018-09-04T09:05:26.405Z,16.47
2018-09-04T09:07:54.837Z,16.07
2018-09-04T09:10:23.168Z,16.33
2018-09-04T09:12:51.495Z,17.57
2018-09-04T09:15:19.859Z,15.57
2018-09-04T09:17:48.211Z,16.97
2018-09-04T09:20:16.543Z,16.20
2018-09-04T09:22:44.935Z,17.07
2018-09-04T09:25:13.231Z,16.30
2018-09-04T09:27:41.569Z,15.97
2018-09-04T09:30:10.019Z,15.33
2018-09-04T09:32:38.368Z,17.03
2018-09-04T09:35:06.782Z,15.47
2018-09-04T09:37:35.086Z,15.67
2018-09-04T09:40:03.462Z,14.90
2018-09-04T09:42:31.849Z,16.77
2018-09-04T09:45:00.261Z,14.23
2018-09-04T09:47:28.622Z,15.63
2018-09-04T09:49:56.993Z,15.90
2018-09-04T09:52:25.375Z,15.47
2018-09-04T09:54:53.722Z,14.60
2018-09-04T09:57:22.071Z,14.60
2018-09-04T09:59:50.443Z,15.33
2018-09-04T10:02:18.759Z,15.50
2018-09-04T10:04:47.097Z,14.90
2018-09-04T10:07:15.478Z,15.20
2018-09-04T10:09:43.864Z,16.20
2018-09-04T10:12:12.152Z,16.77
2018-09-04T10:14:40.533Z,14.63
2018-09-04T10:17:09.129Z,16.50
2018-09-04T10:19:37.497Z,17.03
2018-09-04T10:22:05.908Z,15.60
2018-09-04T10:24:34.337Z,17.20
2018-09-04T10:27:02.678Z,15.37
2018-09-04T10:29:31.050Z,16.13
2018-09-04T10:31:59.471Z,15.60
2018-09-04T10:34:27.854Z,14.93
2018-09-04T10:36:56.218Z,15.17
2018-09-04T10:39:29.959Z,14.67
2018-09-04T10:41:58.383Z,15.10
2018-09-04T10:44:30.968Z,15.83
2018-09-04T10:46:59.322Z,14.03
2018-09-04T10:49:27.722Z,14.73
2018-09-04T10:51:56.178Z,13.40
2018-09-04T10:54:24.558Z,12.80
2018-09-04T10:56:52.887Z,13.70
2018-09-04T10:59:21.220Z,12.40
2018-09-04T11:01:49.547Z,12.70
2018-09-04T11:04:18.194Z,12.03
2018-09-04T11:06:46.775Z,12.83
2018-09-04T11:09:15.401Z,12.83
2018-09-04T11:11:43.925Z,13.00
2018-09-04T11:14:12.340Z,13.10
2018-09-04T11:16:40.654Z,11.90
2018-09-04T11:19:10.042Z,12.00
2018-09-04T11:21:38.372Z,11.30
2018-09-04T11:24:06.747Z,12.63
2018-09-04T11:26:35.428Z,12.70
2018-09-04T11:29:06.065Z,11.97
2018-09-04T11:31:34.456Z,12.00
2018-09-04T11:34:03.929Z,11.97
2018-09-04T11:36:32.323Z,12.10
2018-09-04T11:39:00.642Z,12.27
2018-09-04T11:41:29.167Z,11.80
2018-09-04T11:43:57.490Z,11.97
2018-09-04T11:46:26.123Z,10.03
2018-09-04T11:48:54.621Z,9.80
2018-09-04T11:51:23.472Z,9.70
2018-09-04T11:53:51.831Z,9.60
2018-09-04T11:56:20.901Z,9.90
2018-09-04T11:58:49.463Z,9.70
2018-09-04T12:01:20.127Z,10.93
2018-09-04T12:03:48.684Z,11.80
2018-09-04T12:06:17.024Z,10.63
2018-09-04T12:08:45.377Z,9.80
2018-09-04T12:11:13.763Z,10.70
2018-09-04T12:13:42.345Z,11.10
2018-09-04T12:16:10.815Z,10.17
2018-09-04T12:18:39.287Z,10.97
2018-09-04T12:21:09.034Z,11.00
2018-09-04T12:23:37.662Z,12.23
2018-09-04T12:26:07.438Z,11.10
2018-09-04T12:28:36.026Z,10.90
2018-09-04T12:31:04.624Z,11.50
2018-09-04T12:33:33.028Z,11.00
2018-09-04T12:36:01.371Z,11.20
2018-09-04T12:38:31.473Z,11.77
2018-09-04T12:41:04.386Z,11.23
2018-09-04T12:43:39.256Z,10.93
2018-09-04T12:46:07.659Z,11.77
2018-09-04T12:48:36.052Z,11.17
2018-09-04T12:51:04.436Z,10.70
2018-09-04T12:53:33.909Z,11.43
2018-09-04T12:56:02.522Z,10.03
2018-09-04T12:58:30.954Z,11.87
2018-09-04T13:00:59.472Z,10.90
2018-09-04T13:03:28.851Z,11.30
2018-09-04T13:05:57.650Z,10.93
2018-09-04T13:08:27.589Z,11.17
2018-09-04T13:10:55.944Z,10.90
2018-09-04T13:13:24.262Z,11.30
2018-09-04T13:15:54.129Z,12.50
2018-09-04T13:18:22.765Z,10.37
2018-09-04T13:20:51.531Z,11.50
2018-09-04T13:23:20.099Z,10.40
2018-09-04T13:25:48.485Z,10.60
2018-09-04T13:28:16.841Z,11.17
2018-09-04T13:30:45.212Z,12.77
2018-09-04T13:33:13.647Z,12.17
2018-09-04T13:35:42.454Z,12.00
2018-09-04T13:38:11.028Z,11.60
2018-09-04T13:40:39.424Z,12.93
2018-09-04T13:43:07.823Z,12.23
2018-09-04T13:45:36.229Z,12.00
2018-09-04T13:48:04.963Z,12.57
2018-09-04T13:50:33.776Z,11.40
2018-09-04T13:53:02.321Z,12.70
2018-09-04T13:55:31.366Z,12.80
2018-09-04T13:57:59.770Z,12.53
2018-09-04T14:00:28.130Z,12.43
2018-09-04T14:02:56.483Z,11.20
2018-09-04T14:05:25.464Z,11.47
2018-09-04T14:07:53.977Z,12.17
2018-09-04T14:10:22.311Z,11.80
2018-09-04T14:12:51.053Z,11.30
2018-09-04T14:15:19.416Z,11.83
2018-09-04T14:17:47.904Z,11.23
2018-09-04T14:20:16.670Z,11.47
2018-09-04T14:22:45.523Z,10.40
2018-09-04T14:25:44.806Z,12.47
2018-09-04T14:28:13.273Z,12.23
2018-09-04T14:30:41.912Z,12.53
2018-09-04T14:33:10.298Z,11.93
2018-09-04T14:35:38.894Z,12.73
2018-09-04T14:38:07.405Z,12.37
2018-09-04T14:40:36.179Z,12.00
2018-09-04T14:43:04.955Z,15.80
2018-09-04T14:45:33.713Z,17.13
2018-09-04T14:48:02.431Z,17.23
2018-09-04T14:50:30.930Z,15.37
2018-09-04T14:52:59.424Z,15.87
2018-09-04T14:55:28.762Z,15.50
2018-09-04T14:57:57.620Z,15.53
2018-09-04T15:00:26.136Z,13.90
2018-09-04T15:02:54.691Z,12.40
2018-09-04T15:05:23.636Z,13.70
2018-09-04T15:07:52.455Z,12.43
2018-09-04T15:10:21.033Z,14.27
2018-09-04T15:12:49.739Z,14.07
2018-09-04T15:15:18.376Z,13.83
2018-09-04T15:17:46.894Z,12.60
2018-09-04T15:20:15.463Z,13.60
2018-09-04T15:22:44.267Z,13.70
2018-09-04T15:25:13.115Z,12.57
2018-09-04T15:27:41.577Z,13.80
2018-09-04T15:30:10.169Z,13.17
2018-09-04T15:32:38.694Z,13.47
2018-09-04T15:35:07.186Z,13.40
2018-09-04T15:37:35.688Z,13.80
2018-09-04T15:40:04.145Z,14.53
2018-09-04T15:42:32.604Z,12.20
2018-09-04T15:45:01.050Z,12.27
2018-09-04T15:47:29.488Z,14.03
2018-09-04T15:49:57.956Z,12.67
2018-09-04T15:52:26.424Z,12.20
2018-09-04T15:54:54.917Z,13.17
2018-09-04T15:57:23.394Z,15.57
2018-09-04T15:59:51.744Z,13.93
2018-09-04T16:02:20.247Z,14.20
2018-09-04T16:04:48.634Z,14.00
2018-09-04T16:07:17.125Z,15.43
2018-09-04T16:09:45.657Z,13.73
2018-09-04T16:12:13.979Z,15.00
2018-09-04T16:14:42.337Z,15.47
2018-09-04T16:17:10.691Z,16.77
2018-09-04T16:19:39.086Z,17.60
2018-09-04T16:22:07.783Z,16.10
2018-09-04T16:24:36.556Z,17.77
2018-09-04T16:27:04.938Z,16.23
2018-09-04T16:29:33.418Z,17.23
2018-09-04T16:32:02.024Z,16.60
2018-09-04T16:34:30.611Z,16.93
2018-09-04T16:36:59.499Z,16.20
2018-09-04T16:39:28.122Z,15.87
2018-09-04T16:41:56.704Z,17.20
2018-09-04T16:44:25.196Z,15.73
2018-09-04T16:46:53.629Z,16.13
2018-09-04T16:49:26.541Z,16.40
2018-09-04T16:51:56.498Z,15.70
2018-09-04T16:54:25.747Z,16.50
2018-09-04T16:56:54.427Z,16.00
2018-09-04T16:59:23.244Z,15.57
2018-09-04T17:01:51.759Z,15.23
2018-09-04T17:04:20.271Z,15.70
2018-09-04T17:06:48.737Z,15.93
2018-09-04T17:09:17.259Z,14.80
2018-09-04T17:11:45.757Z,16.10
2018-09-04T17:14:14.241Z,14.77
2018-09-04T17:16:42.791Z,16.20
2018-09-04T17:19:11.328Z,14.23
2018-09-04T17:21:39.790Z,15.90
2018-09-04T17:24:08.266Z,17.53
2018-09-04T17:26:36.795Z,16.40
2018-09-04T17:29:05.320Z,17.57
2018-09-04T17:31:33.832Z,16.80
2018-09-04T17:34:02.281Z,15.80
2018-09-04T17:36:30.756Z,14.30
2018-09-04T17:38:59.219Z,16.03
2018-09-04T17:41:27.810Z,14.67
2018-09-04T17:43:56.257Z,13.93
2018-09-04T17:46:24.741Z,15.33
2018-09-04T17:48:53.260Z,15.63
2018-09-04T17:51:21.670Z,15.10
2018-09-04T17:53:50.065Z,15.53
2018-09-04T17:56:18.512Z,14.60
2018-09-04T17:58:46.983Z,15.17
2018-09-04T18:01:15.452Z,15.43
2018-09-04T18:03:43.940Z,16.47
2018-09-04T18:06:12.454Z,16.30
2018-09-04T18:08:41.012Z,13.87
2018-09-04T18:11:09.518Z,15.30
2018-09-04T18:13:38.068Z,14.97
2018-09-04T18:16:06.494Z,15.87
2018-09-04T18:18:35.709Z,15.10
2018-09-04T18:21:04.027Z,15.40
2018-09-04T18:23:32.382Z,14.33
2018-09-04T18:26:00.763Z,16.10
2018-09-04T18:28:29.136Z,14.67
2018-09-04T18:30:57.495Z,16.50
2018-09-04T18:33:25.938Z,15.70
2018-09-04T18:35:54.704Z,17.00
2018-09-04T18:38:23.250Z,17.23
2018-09-04T18:40:51.603Z,17.00
2018-09-04T18:43:19.930Z,17.77
2018-09-04T18:45:53.671Z,16.20
2018-09-04T18:48:22.031Z,17.87
2018-09-04T18:50:50.375Z,17.83
2018-09-04T18:53:18.870Z,16.03
2018-09-04T18:55:47.487Z,17.00
2018-09-04T18:58:15.938Z,17.60
2018-09-04T19:00:44.648Z,17.47
2018-09-04T19:03:13.151Z,17.10
2018-09-04T19:05:41.656Z,16.47
2018-09-04T19:08:10.169Z,16.07
2018-09-04T19:10:38.603Z,15.93
2018-09-04T19:13:07.166Z,17.90
2018-09-04T19:15:35.725Z,17.33
2018-09-04T19:18:04.223Z,17.90
2018-09-04T19:20:32.878Z,18.40
2018-09-04T19:23:01.342Z,17.60
2018-09-04T19:25:29.834Z,18.93
2018-09-04T19:27:58.317Z,18.03
2018-09-04T19:30:26.967Z,19.60
2018-09-04T19:32:55.522Z,19.30
2018-09-04T19:35:23.978Z,19.60
2018-09-04T19:37:52.455Z,18.23
2018-09-04T19:40:20.950Z,19.63
2018-09-04T19:42:49.637Z,20.10
2018-09-04T19:45:18.116Z,20.07
2018-09-04T19:47:46.556Z,21.17
2018-09-04T19:50:15.116Z,19.43
2018-09-04T19:52:43.592Z,18.93
2018-09-04T19:55:12.663Z,20.47
2018-09-04T19:57:41.077Z,22.80
2018-09-04T20:00:10.082Z,21.80
2018-09-04T20:02:38.530Z,22.90
2018-09-04T20:05:07.425Z,21.27
2018-09-04T20:07:35.950Z,21.30
2018-09-04T20:10:04.429Z,19.83
2018-09-04T20:12:32.825Z,20.43
2018-09-04T20:15:01.186Z,21.40
2018-09-04T20:17:29.879Z,22.50
2018-09-04T20:19:58.394Z,22.10
2018-09-04T20:22:26.923Z,21.57
2018-09-04T20:24:55.350Z,22.77
2018-09-04T20:27:23.933Z,22.77
2018-09-04T20:29:52.434Z,23.70
2018-09-04T20:32:20.828Z,22.77
2018-09-04T20:34:49.204Z,20.53
2018-09-04T20:37:17.654Z,23.07
2018-09-04T20:39:46.226Z,22.60
2018-09-04T20:42:14.627Z,23.30
2018-09-04T20:44:42.919Z,22.10
2018-09-04T20:47:11.381Z,22.30
2018-09-04T20:49:39.841Z,23.47
2018-09-04T20:52:08.318Z,21.83
2018-09-04T20:54:36.755Z,21.47
2018-09-04T20:57:38.604Z,23.50
2018-09-04T21:00:19.836Z,23.67
2018-09-04T21:02:59.750Z,22.50
2018-09-04T21:05:40.467Z,23.23
2018-09-04T21:08:23.759Z,20.97
2018-09-04T21:10:54.351Z,24.87
2018-09-04T21:13:22.743Z,23.60
2018-09-04T21:15:51.175Z,23.17
2018-09-04T21:18:19.693Z,21.90
2018-09-04T21:20:48.277Z,22.20
2018-09-04T21:23:16.693Z,21.33
2018-09-04T21:25:45.167Z,23.03
2018-09-04T21:28:13.586Z,22.67
2018-09-04T21:30:41.982Z,22.07
2018-09-04T21:33:10.386Z,23.70
2018-09-04T21:35:38.820Z,22.63
2018-09-04T21:38:07.243Z,23.43
2018-09-04T21:40:35.622Z,23.43
2018-09-04T21:43:04.066Z,25.60
2018-09-04T21:45:32.493Z,23.70
2018-09-04T21:48:00.885Z,23.07
2018-09-04T21:50:29.318Z,22.30
2018-09-04T21:52:57.767Z,25.03
2018-09-04T21:55:26.204Z,22.60
2018-09-04T21:57:54.638Z,25.40
2018-09-04T22:00:25.790Z,25.40
2018-09-04T22:02:54.985Z,25.83
2018-09-04T22:05:24.081Z,25.97
2018-09-04T22:07:53.115Z,25.60
2018-09-04T22:10:21.607Z,25.10
2018-09-04T22:12:50.033Z,25.00
2018-09-04T22:15:18.472Z,24.40
2018-09-04T22:17:46.882Z,25.83
2018-09-04T22:20:15.236Z,25.20
2018-09-04T22:22:43.697Z,25.23
2018-09-04T22:25:12.037Z,25.63
2018-09-04T22:27:40.395Z,24.73
2018-09-04T22:30:08.791Z,26.70
2018-09-04T22:32:37.174Z,25.17
2018-09-04T22:35:05.590Z,25.37
2018-09-04T22:37:33.964Z,24.93
2018-09-04T22:40:02.347Z,26.63
2018-09-04T22:42:30.749Z,25.87
2018-09-04T22:44:59.143Z,25.03
2018-09-04T22:47:27.503Z,23.43
2018-09-04T22:50:14.672Z,24.77
2018-09-04T22:52:43.161Z,23.77
2018-09-04T22:55:12.327Z,23.67
2018-09-04T22:57:41.484Z,22.90
2018-09-04T23:00:10.462Z,24.83
2018-09-04T23:02:38.830Z,23.00
2018-09-04T23:05:07.199Z,22.33
2018-09-04T23:07:35.585Z,22.13
2018-09-04T23:10:04.623Z,22.33
2018-09-04T23:12:32.958Z,22.73
2018-09-04T23:15:01.283Z,21.97
2018-09-04T23:17:29.614Z,21.87
2018-09-04T23:19:58.019Z,22.70
2018-09-04T23:22:26.359Z,21.60
2018-09-04T23:24:54.682Z,20.47
2018-09-04T23:27:23.026Z,20.60
2018-09-04T23:29:51.339Z,21.93
2018-09-04T23:32:19.712Z,21.90
2018-09-04T23:34:48.067Z,21.00
2018-09-04T23:37:16.427Z,20.70
2018-09-04T23:39:44.783Z,20.00
2018-09-04T23:42:13.216Z,18.43
2018-09-04T23:44:41.554Z,21.50
2018-09-04T23:47:09.862Z,19.20
2018-09-04T23:49:38.222Z,20.20
2018-09-04T23:52:06.594Z,20.40
2018-09-04T23:54:34.920Z,18.43
2018-09-04T23:57:03.257Z,22.00
2018-09-04T23:59:31.590Z,21.63
